Terminal Aerodrome Forecast
Issued by NWS

Home | Current Version | Previous Version | Text Only | Print | Product List | Glossary On
Versions: 1 2 3 4 5 6 7 8 9 10 11 12
000
FTUS45 KREV 172300
TAFMMH
TAF
KMMH 172331Z 1800/1824 29015G25KT P6SM SCT100
     FM180400 VRB05KT P6SM FEW100
     FM181900 26015G25KT P6SM SCT100 SCT150
     FM182300 31014G24KT P6SM SCT090 BKN120
      AMD NOT SKED 1802/1814=

USA.gov is the U.S. government's official web portal to all federal, state and local government web resources and services.